METAR

TAF

 




Rio de Janeiro / Galeão - Antonio Carlos Jobim, RJ - SBGL


22 de Maio de 2015 às 17:00 (UTC)


Tempo:

Céu com nuvens esparsas

Temperatura:

27ºC

Umidade Relativa:

54%

Localização:
Ajuste do Altímetro:

1021 hPa

Visibilidade Horizontal Predominante:

> 10 Km

Direção e Velocidade do Vento:

130° 12,96 Km/h


Observação Meteorológica:

METAR SBGL 221700Z 13007KT 9999 FEW030 27/17 Q1021=